HomeShort term forecast

Short term forecast

Graphical weather forecast for the next 48 hours for Montreal:
Short term forecast
This weather forecast is automatically refreshed every 3 hours.

Hourly Experimental Forecast for the next 48 hours ®

Overall summary: Mostly cloudy throughout the day.

 Date & Hour   Temp   Feel   Baro   Hum   Speed & Bearing   Wind Gust   Precip.%   Precip.   Visibility   Cloud cover   Conditions 
 09/12/2018 - 15:00  -1.3°C  -7.0°C  1019.2 hPa  76%  21.2 km/h   43.7 km/h  15%  0.03 mm/h  16.1km  100%  Overcast 
 09/12/2018 - 16:00  -1.7°C  -7.8°C  1019.0 hPa  81%  23.0 km/h   48.4 km/h  16%  0.25 mm/h  15.5km  96%  Possible Light Snow 
 09/12/2018 - 17:00  -2.1°C  -8.4°C  1018.7 hPa  86%  23.7 km/h   52.2 km/h  9%  0.16 mm/h  11.8km  72%  Mostly Cloudy 
 09/12/2018 - 18:00  -2.0°C  -8.1°C  1018.7 hPa  84%  22.3 km/h   51.1 km/h  6%  0.06 mm/h  13.0km  65%  Mostly Cloudy 
 09/12/2018 - 19:00  -1.9°C  -7.8°C  1018.6 hPa  81%  21.1 km/h   48.3 km/h  3%  0.02 mm/h  13.5km  57%  Partly Cloudy 
 09/12/2018 - 20:00  -1.9°C  -7.4°C  1018.9 hPa  81%  19.1 km/h   43.0 km/h  6%  0.10 mm/h  8.7km  54%  Partly Cloudy 
 09/12/2018 - 21:00  -2.1°C  -7.1°C  1019.5 hPa  82%  16.0 km/h   36.3 km/h  3%  0.02 mm/h  11.9km  51%  Partly Cloudy 
 09/12/2018 - 22:00  -2.3°C  -7.2°C  1020.0 hPa  81%  14.5 km/h   34.8 km/h  5%  0.05 mm/h  12.6km  49%  Partly Cloudy 
 09/12/2018 - 23:00  -2.9°C  -7.4°C  1020.0 hPa  81%  12.3 km/h   29.0 km/h  3%  0.01 mm/h  14.4km  46%  Partly Cloudy 
 10/12/2018 - 00:00  -3.6°C  -7.9°C  1019.9 hPa  80%  10.9 km/h   24.9 km/h  3%  0.01 mm/h  16.1km  49%  Partly Cloudy 
 10/12/2018 - 01:00  -4.4°C  -8.6°C  1020.0 hPa  79%  10.1 km/h   23.0 km/h  2%  0.01 mm/h  16.1km  48%  Partly Cloudy 
 10/12/2018 - 02:00  -5.2°C  -9.3°C  1020.4 hPa  77%  9.6 km/h   20.9 km/h  0%  --  16.1km  35%  Partly Cloudy 
 10/12/2018 - 03:00  -6.0°C  -10.0°C  1020.8 hPa  75%  8.8 km/h   19.5 km/h  0%  --  16.1km  16%  Clear 
 10/12/2018 - 04:00  -6.6°C  -10.7°C  1021.2 hPa  73%  8.6 km/h   18.1 km/h  0%  --  16.1km  2%  Clear 
 10/12/2018 - 05:00  -7.7°C  -11.5°C  1021.7 hPa  75%  7.6 km/h   14.4 km/h  0%  --  16.1km  0%  Clear 
 10/12/2018 - 06:00  -8.6°C  -12.1°C  1022.2 hPa  76%  6.4 km/h   10.2 km/h  0%  --  16.1km  0%  Clear 
 10/12/2018 - 07:00  -8.9°C  -12.1°C  1022.7 hPa  76%  5.6 km/h   7.0 km/h  0%  --  16.1km  1%  Clear 
 10/12/2018 - 08:00  -8.5°C  -11.6°C  1023.0 hPa  74%  5.6 km/h   5.8 km/h  0%  --  16.1km  0%  Clear 
 10/12/2018 - 09:00  -7.8°C  -11.0°C  1023.2 hPa  71%  6.1 km/h   6.2 km/h  0%  --  16.1km  0%  Clear 
 10/12/2018 - 10:00  -7.1°C  -10.4°C  1023.3 hPa  68%  6.4 km/h   6.5 km/h  0%  --  16.1km  0%  Clear 
 10/12/2018 - 11:00  -6.5°C  -9.4°C  1023.2 hPa  65%  5.8 km/h   6.3 km/h  0%  --  16.1km  2%  Clear 
 10/12/2018 - 12:00  -6.0°C  -8.4°C  1023.1 hPa  63%  5.0 km/h   7.1 km/h  0%  --  16.1km  5%  Clear 
 10/12/2018 - 13:00  -5.8°C  -8.1°C  1022.9 hPa  63%  4.9 km/h   8.1 km/h  2%  0.01 mm/h  16.1km  9%  Clear 
 10/12/2018 - 14:00  -5.8°C  -8.4°C  1022.8 hPa  65%  5.4 km/h   9.8 km/h  2%  0.01 mm/h  16.1km  17%  Clear 
 10/12/2018 - 15:00  -6.1°C  -9.3°C  1022.7 hPa  68%  6.6 km/h   11.8 km/h  2%  0.01 mm/h  16.1km  27%  Partly Cloudy 
 10/12/2018 - 16:00  -6.5°C  -10.1°C  1022.8 hPa  71%  7.3 km/h   12.9 km/h  2%  0.01 mm/h  16.1km  32%  Partly Cloudy 
 10/12/2018 - 17:00  -6.8°C  -10.4°C  1023.0 hPa  71%  7.1 km/h   12.9 km/h  2%  0.01 mm/h  16.1km  30%  Partly Cloudy 
 10/12/2018 - 18:00  -7.2°C  -10.5°C  1023.3 hPa  70%  6.4 km/h   12.0 km/h  0%  --  16.1km  23%  Clear 
 10/12/2018 - 19:00  -7.6°C  -10.7°C  1023.5 hPa  70%  5.8 km/h   10.7 km/h  0%  --  16.1km  18%  Clear 
 10/12/2018 - 20:00  -8.4°C  -11.2°C  1023.4 hPa  73%  5.3 km/h   8.6 km/h  0%  --  16.1km  14%  Clear 
 10/12/2018 - 21:00  -8.6°C  -11.2°C  1023.2 hPa  74%  4.9 km/h   6.1 km/h  0%  --  16.1km  12%  Clear 
 10/12/2018 - 22:00  -8.8°C  -8.8°C  1023.0 hPa  74%  4.5 km/h   4.6 km/h  0%  --  16.1km  10%  Clear 
 10/12/2018 - 23:00  -9.2°C  -9.2°C  1022.8 hPa  76%  4.0 km/h   4.1 km/h  0%  --  16.1km  10%  Clear 
 11/12/2018 - 00:00  -9.5°C  -9.5°C  1022.5 hPa  78%  3.6 km/h   3.6 km/h  0%  --  16.1km  11%  Clear 
 11/12/2018 - 01:00  -9.6°C  -9.6°C  1022.3 hPa  79%  3.3 km/h   3.8 km/h  0%  --  16.1km  15%  Clear 
 11/12/2018 - 02:00  -9.4°C  -9.4°C  1022.1 hPa  78%  3.2 km/h   3.5 km/h  0%  --  16.1km  33%  Partly Cloudy 
 11/12/2018 - 03:00  -9.1°C  -9.1°C  1021.9 hPa  77%  3.1 km/h   3.3 km/h  0%  --  16.1km  58%  Partly Cloudy 
 11/12/2018 - 04:00  -8.1°C  -8.1°C  1021.7 hPa  72%  3.4 km/h   3.8 km/h  0%  --  16.1km  77%  Mostly Cloudy 
 11/12/2018 - 05:00  -8.1°C  -8.1°C  1021.6 hPa  72%  4.4 km/h   5.5 km/h  0%  --  16.1km  83%  Mostly Cloudy 
 11/12/2018 - 06:00  -8.0°C  -11.0°C  1021.5 hPa  71%  5.7 km/h   7.7 km/h  0%  --  16.1km  85%  Mostly Cloudy 
 11/12/2018 - 07:00  -7.9°C  -11.5°C  1021.4 hPa  72%  6.9 km/h   9.6 km/h  0%  --  16.1km  87%  Mostly Cloudy 
 11/12/2018 - 08:00  -7.5°C  -11.4°C  1021.2 hPa  72%  7.8 km/h   10.6 km/h  0%  --  16.1km  88%  Mostly Cloudy 
 11/12/2018 - 09:00  -7.0°C  -11.2°C  1021.0 hPa  73%  8.5 km/h   11.2 km/h  3%  0.01 mm/h  16.1km  89%  Mostly Cloudy 
 11/12/2018 - 10:00  -6.6°C  -11.0°C  1020.6 hPa  74%  9.2 km/h   11.8 km/h  4%  0.01 mm/h  16.1km  89%  Mostly Cloudy 
 11/12/2018 - 11:00  -6.3°C  -10.8°C  1019.9 hPa  76%  10.1 km/h   12.7 km/h  6%  0.01 mm/h  16.1km  90%  Mostly Cloudy 
 11/12/2018 - 12:00  -5.9°C  -10.6°C  1019.0 hPa  77%  11.0 km/h   13.8 km/h  7%  0.02 mm/h  16.1km  91%  Mostly Cloudy 
 11/12/2018 - 13:00  -5.5°C  -10.3°C  1018.4 hPa  78%  11.7 km/h   14.7 km/h  7%  0.02 mm/h  12.1km  93%  Mostly Cloudy 
 11/12/2018 - 14:00  -5.3°C  -10.2°C  1018.0 hPa  79%  11.9 km/h   15.3 km/h  9%  0.03 mm/h  9.4km  95%  Overcast 
Test

 

Past weather and reports

Past weatherFind in this section the past weather conditions, weather archive, graphics, reports and statistics.

Current conditions

Current weather condition for MontrealAll you need to know about the current weather conditions for Montreal. Weather data is updated every 10 minutes.

Weather forecast

Current Montreal weatherSince 2004, celinium.com website has provided accurate weather forecast for Montreal's island.